Time;durP1;ratioP1;P1;durP2;ratioP2;P2;SDS_P1;SDS_P2;PMS_P1;PMS_P2;Temp;Humidity;BMP_temperature;BMP_pressure;BME280_temperature;BME280_humidity;BME280_pressure;Samples;Min_cycle;Max_cycle;Signal;HPM_P1;HPM_P2
2023/04/27 00:00:13;;;;;;;6.03;1.10;;;;;;;7.77;72.98;101294.25;5113671;28;20523;-66
2023/04/27 00:02:40;;;;;;;4.70;1.30;;;;;;;7.71;73.04;101296.13;5113679;28;20439;-67
2023/04/27 00:05:09;;;;;;;5.60;1.40;;;;;;;7.69;73.63;101292.88;5113511;28;20520;-66
2023/04/27 00:07:36;;;;;;;5.70;1.60;;;;;;;7.73;73.48;101291.28;5113593;28;20448;-67
2023/04/27 00:10:03;;;;;;;5.80;1.43;;;;;;;7.70;72.87;101288.28;5113601;28;20528;-67
2023/04/27 00:12:29;;;;;;;7.23;1.63;;;;;;;7.69;73.23;101290.19;5113551;28;20439;-67
2023/04/27 00:14:56;;;;;;;5.87;1.50;;;;;;;7.68;73.15;101293.97;5113452;28;20534;-67
2023/04/27 00:17:24;;;;;;;5.63;1.27;;;;;;;7.63;72.91;101283.16;5113237;28;20444;-67
2023/04/27 00:19:51;;;;;;;5.27;1.47;;;;;;;7.66;72.80;101287.19;5112993;28;20994;-67
2023/04/27 00:22:17;;;;;;;6.60;1.27;;;;;;;7.67;73.95;101286.94;5113467;28;20443;-67
2023/04/27 00:24:44;;;;;;;4.83;0.90;;;;;;;7.67;74.16;101286.94;5112994;28;21007;-67
2023/04/27 00:27:12;;;;;;;5.50;1.27;;;;;;;7.68;73.85;101280.47;5113397;28;20530;-68
2023/04/27 00:29:41;;;;;;;7.33;2.07;;;;;;;7.73;73.04;101293.97;5113361;28;20436;-67
2023/04/27 00:32:08;;;;;;;4.67;0.87;;;;;;;7.68;73.71;101285.88;5113354;28;20530;-67
2023/04/27 00:34:36;;;;;;;6.30;1.67;;;;;;;7.68;73.45;101291.25;5112867;28;20478;-67
2023/04/27 00:37:04;;;;;;;6.13;1.77;;;;;;;7.66;74.31;101282.63;5113380;28;20470;-67
2023/04/27 00:39:31;;;;;;;13.07;2.03;;;;;;;7.57;74.82;101279.63;5113137;28;20447;-67
2023/04/27 00:41:57;;;;;;;5.90;1.13;;;;;;;7.58;75.68;101291.22;5113129;28;20522;-67
2023/04/27 00:44:24;;;;;;;8.67;1.57;;;;;;;7.62;75.32;101292.34;5113377;28;20436;-68
2023/04/27 00:46:51;;;;;;;5.17;1.23;;;;;;;7.68;74.86;101295.84;5112983;28;20436;-67
2023/04/27 00:49:18;;;;;;;5.07;1.47;;;;;;;7.69;74.88;101298.28;5113209;28;20460;-67
2023/04/27 00:51:46;;;;;;;6.23;1.73;;;;;;;7.69;75.31;101302.84;5113173;28;20463;-67
2023/04/27 00:54:13;;;;;;;5.80;1.20;;;;;;;7.68;75.92;101303.94;5113113;28;20479;-67
2023/04/27 00:56:39;;;;;;;4.90;1.27;;;;;;;7.70;75.41;101304.47;5112817;28;20538;-67
2023/04/27 00:59:06;;;;;;;5.07;1.00;;;;;;;7.70;75.51;101305.31;5112830;28;20445;-67
2023/04/27 01:01:33;;;;;;;9.10;1.73;;;;;;;7.69;76.35;101306.34;5113231;28;20846;-66
2023/04/27 01:04:00;;;;;;;5.10;1.53;;;;;;;7.67;76.00;101310.41;5113063;28;20527;-67
2023/04/27 01:06:28;;;;;;;6.27;1.67;;;;;;;7.67;76.06;101305.81;5113848;28;20524;-67
2023/04/27 01:08:56;;;;;;;7.53;1.50;;;;;;;7.69;76.42;101306.34;5116784;28;20447;-67
2023/04/27 01:11:23;;;;;;;8.43;1.53;;;;;;;7.67;76.36;101308.53;5116759;28;20534;-67
2023/04/27 01:13:49;;;;;;;6.13;1.30;;;;;;;7.66;75.55;101309.59;5116105;28;20439;-67
2023/04/27 01:16:17;;;;;;;6.00;1.30;;;;;;;7.62;75.53;101310.41;5116490;28;20549;-67
2023/04/27 01:18:44;;;;;;;6.77;1.73;;;;;;;7.57;75.30;101306.59;5116204;28;20448;-67
2023/04/27 01:21:11;;;;;;;6.80;1.23;;;;;;;7.57;75.20;101319.28;5116068;28;21021;-67
2023/04/27 01:23:39;;;;;;;4.90;1.17;;;;;;;7.57;75.40;101311.19;5116216;28;20443;-67
2023/04/27 01:26:05;;;;;;;5.13;1.57;;;;;;;7.54;75.32;101309.00;5116402;28;20558;-67
2023/04/27 01:28:32;;;;;;;6.23;1.40;;;;;;;7.47;75.44;101311.13;5116416;28;20539;-67
2023/04/27 01:30:59;;;;;;;7.67;1.77;;;;;;;7.43;75.59;101312.72;5116725;28;20439;-67
2023/04/27 01:33:25;;;;;;;6.20;1.67;;;;;;;7.37;75.77;101319.16;5116375;27;20440;-67
2023/04/27 01:35:52;;;;;;;6.00;1.03;;;;;;;7.36;75.36;101325.63;5115787;28;20475;-67
2023/04/27 01:38:18;;;;;;;7.47;1.87;;;;;;;7.38;75.46;101326.97;5115957;28;20522;-67
2023/04/27 01:40:46;;;;;;;6.43;1.60;;;;;;;7.38;75.80;101323.47;5116085;28;20487;-67
2023/04/27 01:43:13;;;;;;;5.67;1.47;;;;;;;7.21;76.05;101319.06;5116175;28;20518;-67
2023/04/27 01:45:39;;;;;;;6.23;1.23;;;;;;;7.21;76.18;101326.31;5115998;28;20542;-67
2023/04/27 01:48:06;;;;;;;7.80;1.40;;;;;;;7.22;76.25;101319.88;5115732;28;20555;-67
2023/04/27 01:50:33;;;;;;;6.23;1.53;;;;;;;7.27;75.56;101328.00;5116004;28;20436;-67
2023/04/27 01:52:59;;;;;;;7.03;1.33;;;;;;;7.24;76.10;101329.31;5115683;28;20820;-67
2023/04/27 01:55:26;;;;;;;6.23;1.50;;;;;;;7.27;75.77;101336.88;5115837;28;20491;-67
2023/04/27 01:57:54;;;;;;;4.70;0.97;;;;;;;7.31;76.27;101338.00;5115481;28;20436;-67
2023/04/27 02:00:21;;;;;;;6.03;1.50;;;;;;;7.32;75.18;101342.31;5115735;28;20480;-67
2023/04/27 02:02:49;;;;;;;4.80;1.23;;;;;;;7.26;75.43;101337.97;5115781;28;20524;-67
2023/04/27 02:05:16;;;;;;;5.40;1.40;;;;;;;7.31;75.49;101346.06;5115697;28;20485;-67
2023/04/27 02:07:43;;;;;;;5.20;1.03;;;;;;;7.30;75.60;101344.47;5115673;28;20440;-67
2023/04/27 02:10:10;;;;;;;5.63;1.20;;;;;;;7.29;75.20;101347.41;5115485;28;20874;-67
2023/04/27 02:12:37;;;;;;;5.93;1.50;;;;;;;7.30;75.17;101344.47;5115565;28;20446;-67
2023/04/27 02:15:06;;;;;;;6.40;1.40;;;;;;;7.34;74.66;101344.72;5115155;28;20546;-67
2023/04/27 02:17:34;;;;;;;4.87;1.07;;;;;;;7.24;75.87;101345.47;5114923;28;20439;-67
2023/04/27 02:20:01;;;;;;;8.00;1.40;;;;;;;7.27;75.72;101350.38;5114945;28;21030;-67
2023/04/27 02:22:27;;;;;;;4.80;1.10;;;;;;;7.30;75.49;101349.84;5115357;28;20444;-68
2023/04/27 02:24:54;;;;;;;6.23;1.50;;;;;;;7.31;75.87;101356.06;5115334;28;20546;-67
2023/04/27 02:27:20;;;;;;;7.43;1.77;;;;;;;7.32;76.09;101353.09;5115351;28;20877;-67
2023/04/27 02:29:47;;;;;;;7.20;1.10;;;;;;;7.30;75.52;101355.25;5114970;28;20475;-67
2023/04/27 02:32:15;;;;;;;5.60;1.17;;;;;;;7.26;75.37;101343.34;5115204;28;20431;-67
2023/04/27 02:34:42;;;;;;;5.63;1.53;;;;;;;7.27;74.76;101350.38;5114625;28;20507;-66
2023/04/27 02:37:08;;;;;;;5.93;1.60;;;;;;;7.25;75.27;101352.50;5114927;28;20471;-66
2023/04/27 02:39:35;;;;;;;7.53;1.60;;;;;;;7.23;75.86;101349.25;5114746;28;20440;-66
2023/04/27 02:42:02;;;;;;;10.60;1.70;;;;;;;7.23;76.13;101353.84;5115126;28;20515;-66
2023/04/27 02:44:29;;;;;;;7.50;1.47;;;;;;;7.21;75.76;101356.78;5114921;28;20462;-66
2023/04/27 02:46:56;;;;;;;7.00;1.53;;;;;;;7.20;76.04;101359.72;5114947;28;20440;-66
2023/04/27 02:49:24;;;;;;;8.83;1.70;;;;;;;7.18;75.81;101360.00;5114623;28;20989;-68
2023/04/27 02:51:50;;;;;;;7.20;1.93;;;;;;;7.21;76.65;101358.66;5114780;28;20435;-68
2023/04/27 02:54:17;;;;;;;7.13;1.23;;;;;;;7.17;77.52;101366.47;5114654;28;20431;-69
2023/04/27 02:56:43;;;;;;;7.03;2.00;;;;;;;7.21;77.98;101367.53;5114402;28;20439;-69
2023/04/27 02:59:10;;;;;;;5.63;1.53;;;;;;;7.22;78.18;101374.59;5114692;28;20446;-69
2023/04/27 03:01:36;;;;;;;12.90;2.10;;;;;;;7.23;78.79;101370.00;5114530;28;20917;-69
2023/04/27 03:04:03;;;;;;;6.57;1.07;;;;;;;7.23;78.89;101372.69;5114524;28;20515;-66
2023/04/27 03:06:31;;;;;;;5.80;1.80;;;;;;;7.24;78.95;101367.03;5114390;28;20467;-67
2023/04/27 03:08:58;;;;;;;7.10;2.10;;;;;;;7.32;78.45;101371.94;5114133;28;21026;-66
2023/04/27 03:11:24;;;;;;;14.13;1.70;;;;;;;7.34;77.86;101367.09;5114103;28;20474;-66
2023/04/27 03:13:51;;;;;;;5.03;1.37;;;;;;;7.31;77.83;101374.91;5114043;28;20938;-66
2023/04/27 03:16:17;;;;;;;5.17;1.50;;;;;;;7.34;77.50;101377.88;5114266;28;20486;-66
2023/04/27 03:18:44;;;;;;;5.60;1.50;;;;;;;7.29;78.90;101371.66;5114225;28;20856;-67
2023/04/27 03:21:12;;;;;;;11.20;1.97;;;;;;;7.22;78.11;101374.59;5114078;28;20475;-67
2023/04/27 03:23:40;;;;;;;5.40;1.43;;;;;;;7.23;78.06;101378.91;5113919;28;20478;-67
2023/04/27 03:26:07;;;;;;;6.10;1.50;;;;;;;7.19;76.94;101369.69;5114123;28;20551;-67
2023/04/27 03:28:34;;;;;;;8.97;1.70;;;;;;;7.18;77.69;101376.16;5114186;28;20443;-67
2023/04/27 03:31:00;;;;;;;4.90;1.17;;;;;;;7.16;77.81;101383.69;5112751;28;20439;-67
2023/04/27 03:33:28;;;;;;;8.37;1.37;;;;;;;7.13;77.76;101386.06;5113978;28;20443;-67
2023/04/27 03:35:55;;;;;;;5.00;1.20;;;;;;;7.18;77.68;101383.44;5113521;28;20466;-67
2023/04/27 03:38:22;;;;;;;6.10;1.80;;;;;;;7.17;77.52;101388.03;5113679;28;20539;-67
2023/04/27 03:40:50;;;;;;;6.23;1.50;;;;;;;7.19;77.22;101396.66;5113835;28;20570;-67
2023/04/27 03:43:17;;;;;;;6.50;1.67;;;;;;;7.17;77.38;101397.97;5113896;28;20482;-68
2023/04/27 03:45:43;;;;;;;6.23;1.37;;;;;;;7.12;77.15;101396.03;5113772;28;20473;-68
2023/04/27 03:48:10;;;;;;;8.77;1.80;;;;;;;7.08;77.76;101401.16;5113828;28;20443;-67
2023/04/27 03:50:37;;;;;;;7.50;1.93;;;;;;;7.03;76.92;101398.41;5113565;28;20466;-67
2023/04/27 03:53:03;;;;;;;8.77;1.43;;;;;;;7.06;76.49;101400.59;5113743;28;20443;-67
2023/04/27 03:55:30;;;;;;;6.63;1.57;;;;;;;7.14;76.31;101401.19;5113620;28;20464;-68
2023/04/27 03:57:59;;;;;;;8.40;1.93;;;;;;;7.06;76.75;101405.16;5113383;28;20450;-68
2023/04/27 04:00:25;;;;;;;5.10;1.17;;;;;;;7.00;76.55;101404.31;5113583;28;20467;-67
2023/04/27 04:02:52;;;;;;;5.13;1.37;;;;;;;7.03;76.92;101400.28;5113586;28;20443;-67
2023/04/27 04:05:19;;;;;;;5.30;1.10;;;;;;;7.05;76.80;101407.03;5113617;28;20517;-68
2023/04/27 04:07:46;;;;;;;5.10;1.30;;;;;;;7.03;76.75;101406.47;5113504;28;20440;-68
2023/04/27 04:10:13;;;;;;;4.80;0.90;;;;;;;7.01;76.72;101413.22;5113586;28;20869;-68
2023/04/27 04:12:39;;;;;;;9.47;1.60;;;;;;;6.92;76.72;101403.97;5113291;28;20478;-67
2023/04/27 04:15:08;;;;;;;6.80;1.97;;;;;;;6.93;76.98;101416.38;5113483;28;20467;-67
2023/04/27 04:17:35;;;;;;;5.97;1.67;;;;;;;7.00;77.18;101416.97;5113477;28;20439;-67
2023/04/27 04:20:01;;;;;;;5.67;1.53;;;;;;;7.02;77.31;101418.31;5113496;28;20498;-67
2023/04/27 04:22:28;;;;;;;5.37;1.17;;;;;;;6.98;77.49;101424.47;5113108;28;20566;-68
2023/04/27 04:24:55;;;;;;;5.03;1.27;;;;;;;7.05;77.76;101422.41;5113334;28;20900;-67
2023/04/27 04:27:22;;;;;;;5.07;1.23;;;;;;;7.14;77.53;101423.56;5113459;28;20509;-67
2023/04/27 04:29:49;;;;;;;6.73;1.67;;;;;;;7.15;77.49;101419.78;5113150;28;20446;-68
2023/04/27 04:32:19;;;;;;;8.17;1.90;;;;;;;7.16;77.44;101424.09;5113540;28;20531;-68
2023/04/27 04:34:49;;;;;;;8.10;2.33;;;;;;;7.21;76.77;101426.81;5112994;28;20849;-68
2023/04/27 04:37:17;;;;;;;8.50;2.00;;;;;;;7.18;78.04;101430.06;5114482;28;20955;-68
2023/04/27 04:39:43;;;;;;;5.63;1.57;;;;;;;7.20;76.97;101427.91;5113282;28;20546;-68
2023/04/27 04:42:10;;;;;;;6.17;1.83;;;;;;;7.20;76.49;101427.91;5115424;28;21017;-67
2023/04/27 04:44:37;;;;;;;7.67;1.57;;;;;;;7.21;75.84;101426.81;5117124;28;20487;-67
2023/04/27 04:47:05;;;;;;;11.33;1.73;;;;;;;7.24;75.86;101425.50;5116919;28;20496;-67
2023/04/27 04:49:33;;;;;;;5.17;1.30;;;;;;;7.28;75.03;101437.41;5116858;28;20439;-68
2023/04/27 04:51:59;;;;;;;7.60;2.00;;;;;;;7.29;75.37;101439.81;5116847;28;20471;-68
2023/04/27 04:54:26;;;;;;;8.63;1.60;;;;;;;7.28;75.83;101440.09;5117034;28;20463;-68
2023/04/27 04:56:53;;;;;;;5.93;1.83;;;;;;;7.28;76.48;101445.47;5116673;28;20479;-68
2023/04/27 04:59:19;;;;;;;6.53;1.77;;;;;;;7.36;75.61;101445.00;5117014;28;20440;-68
2023/04/27 05:01:46;;;;;;;7.57;1.67;;;;;;;7.43;74.09;101444.78;5116842;28;20486;-68
2023/04/27 05:04:12;;;;;;;14.70;1.73;;;;;;;7.37;73.97;101446.63;5116519;28;20481;-68
2023/04/27 05:06:40;;;;;;;12.17;2.10;;;;;;;7.39;74.58;101447.16;5116825;28;20520;-67
2023/04/27 05:09:07;;;;;;;7.33;1.63;;;;;;;7.40;75.24;101450.72;5116829;28;20471;-68
2023/04/27 05:11:34;;;;;;;5.27;1.60;;;;;;;7.47;74.90;101451.28;5116418;28;20436;-67
2023/04/27 05:14:00;;;;;;;6.40;1.70;;;;;;;7.41;73.65;101452.31;5116731;28;20526;-67
2023/04/27 05:16:27;;;;;;;7.73;1.97;;;;;;;7.50;73.48;101456.16;5116603;28;20549;-68
2023/04/27 05:18:54;;;;;;;9.33;1.80;;;;;;;7.57;73.21;101452.19;5116280;28;20519;-69
2023/04/27 05:21:21;;;;;;;5.87;1.80;;;;;;;7.56;72.90;101447.84;5116227;27;20859;-68
2023/04/27 05:23:49;;;;;;;7.23;1.73;;;;;;;7.61;72.61;101447.06;5116273;28;20444;-69
2023/04/27 05:26:17;;;;;;;13.53;2.00;;;;;;;7.63;73.51;101450.31;5116136;28;20825;-69
2023/04/27 05:28:43;;;;;;;7.77;1.70;;;;;;;7.64;73.18;101448.44;5116479;28;20479;-69
2023/04/27 05:31:10;;;;;;;6.93;1.63;;;;;;;7.63;73.00;101454.91;5116387;28;20527;-68
2023/04/27 05:33:37;;;;;;;5.63;1.40;;;;;;;7.72;72.22;101451.44;5116005;28;20488;-69
2023/04/27 05:36:04;;;;;;;5.53;1.50;;;;;;;7.67;73.19;101450.63;5115800;28;20499;-69
2023/04/27 05:38:32;;;;;;;5.03;1.30;;;;;;;7.73;73.52;101458.47;5116060;27;20450;-69
2023/04/27 05:41:00;;;;;;;9.40;1.13;;;;;;;7.73;72.33;101465.75;5115818;28;20445;-68
2023/04/27 05:43:26;;;;;;;6.93;1.07;;;;;;;7.69;72.03;101465.44;5116214;28;20434;-68
2023/04/27 05:45:53;;;;;;;10.13;1.33;;;;;;;7.63;73.00;101466.50;5115663;28;20833;-68
2023/04/27 05:48:20;;;;;;;13.10;1.80;;;;;;;7.72;71.36;101472.22;5115722;28;20539;-67
2023/04/27 05:50:47;;;;;;;7.60;2.03;;;;;;;7.70;71.92;101469.78;5115990;27;20489;-67
2023/04/27 05:53:14;;;;;;;6.00;1.53;;;;;;;7.68;72.16;101463.03;5114664;28;20820;-68
2023/04/27 05:55:41;;;;;;;5.70;1.77;;;;;;;7.61;71.25;101465.94;5115506;28;20823;-67
2023/04/27 05:58:09;;;;;;;7.87;1.50;;;;;;;7.61;70.89;101467.81;5115854;28;20520;-67
2023/04/27 06:00:37;;;;;;;5.03;1.27;;;;;;;7.57;71.75;101473.75;5115488;28;20891;-67
2023/04/27 06:03:03;;;;;;;5.10;1.53;;;;;;;7.68;71.46;101468.41;5115399;28;20547;-67
2023/04/27 06:05:30;;;;;;;6.63;1.63;;;;;;;7.60;72.11;101467.00;5115625;27;20467;-67
2023/04/27 06:07:56;;;;;;;13.47;1.80;;;;;;;7.62;71.39;101472.97;5115650;28;20942;-67
2023/04/27 06:10:23;;;;;;;5.27;1.20;;;;;;;7.56;71.52;101479.38;5115684;28;20526;-67
2023/04/27 06:12:50;;;;;;;6.23;1.33;;;;;;;7.53;71.62;101486.13;5115526;28;20519;-67
2023/04/27 06:15:18;;;;;;;7.57;1.60;;;;;;;7.61;70.30;101484.81;5115499;28;20455;-67
2023/04/27 06:17:44;;;;;;;12.00;1.83;;;;;;;7.58;70.95;101485.34;5115153;28;20443;-68
2023/04/27 06:20:12;;;;;;;7.70;1.77;;;;;;;7.62;71.16;101486.44;5115477;28;20435;-68
2023/04/27 06:22:39;;;;;;;8.40;1.73;;;;;;;7.74;70.20;101488.94;5115263;28;20479;-67
2023/04/27 06:25:06;;;;;;;4.70;1.00;;;;;;;7.76;69.28;101490.31;5115280;28;20864;-67
2023/04/27 06:27:33;;;;;;;5.40;1.13;;;;;;;7.77;70.14;101489.25;5115315;27;20467;-67
2023/04/27 06:30:00;;;;;;;6.17;1.53;;;;;;;7.84;70.36;101494.41;5115266;28;20519;-68
2023/04/27 06:32:28;;;;;;;6.73;1.47;;;;;;;7.87;70.05;101495.75;5114874;28;20438;-68
2023/04/27 06:34:55;;;;;;;9.50;1.90;;;;;;;7.96;69.18;101489.63;5114801;27;20481;-68
2023/04/27 06:37:22;;;;;;;12.70;1.30;;;;;;;8.01;68.66;101496.91;5115125;28;20444;-68
2023/04/27 06:39:48;;;;;;;6.93;1.67;;;;;;;7.99;68.71;101488.28;5114669;28;20530;-68
2023/04/27 06:42:15;;;;;;;8.10;1.70;;;;;;;8.00;69.09;101489.91;5114886;28;20570;-68
2023/04/27 06:44:41;;;;;;;6.20;1.63;;;;;;;8.00;69.88;101484.50;5114626;28;20494;-68
2023/04/27 06:47:08;;;;;;;5.77;1.30;;;;;;;8.13;69.85;101485.94;5114939;28;20474;-68
2023/04/27 06:49:36;;;;;;;5.00;1.27;;;;;;;8.22;68.21;101490.56;5114788;28;20530;-68
2023/04/27 06:52:03;;;;;;;8.03;1.20;;;;;;;8.35;68.57;101494.69;5114436;28;20441;-70
2023/04/27 06:54:30;;;;;;;5.63;1.23;;;;;;;8.48;67.43;101501.50;5114709;28;20526;-67
2023/04/27 06:56:56;;;;;;;5.63;1.47;;;;;;;8.59;64.31;101498.59;5114689;27;20470;-68
2023/04/27 06:59:23;;;;;;;5.87;1.10;;;;;;;8.68;62.65;101498.91;5114707;28;20443;-74
2023/04/27 07:01:50;;;;;;;5.87;1.80;;;;;;;8.75;62.09;101496.72;5114195;28;20515;-69
2023/04/27 07:04:17;;;;;;;7.53;1.77;;;;;;;8.84;62.85;101499.72;5114273;27;20538;-70
2023/04/27 07:06:45;;;;;;;6.93;1.10;;;;;;;8.98;62.24;101505.44;5114482;28;20443;-68
2023/04/27 07:09:12;;;;;;;6.93;1.53;;;;;;;9.16;62.07;101509.50;5114091;28;20465;-68
2023/04/27 07:11:38;;;;;;;5.20;1.27;;;;;;;9.28;60.73;101512.78;5114351;28;20436;-68
2023/04/27 07:14:05;;;;;;;5.10;1.40;;;;;;;9.33;58.57;101510.88;5114047;28;20439;-68
2023/04/27 07:16:31;;;;;;;6.30;1.73;;;;;;;9.41;60.00;101501.44;5113831;28;20463;-68
2023/04/27 07:18:58;;;;;;;5.20;1.03;;;;;;;9.55;59.26;101507.09;5114128;28;20443;-69
2023/04/27 07:21:25;;;;;;;6.53;1.47;;;;;;;9.58;58.12;101517.38;5114227;28;20467;-69
2023/04/27 07:23:53;;;;;;;6.70;1.00;;;;;;;9.57;57.80;101510.34;5113627;28;20513;-69
2023/04/27 07:26:20;;;;;;;5.23;1.33;;;;;;;9.66;57.86;101503.31;5114101;28;20491;-68
2023/04/27 07:28:47;;;;;;;8.00;1.50;;;;;;;9.46;58.50;101506.03;5114277;28;20443;-71
2023/04/27 07:31:14;;;;;;;5.07;1.23;;;;;;;9.57;56.85;101511.16;5114223;28;20815;-70
2023/04/27 07:33:40;;;;;;;6.53;1.43;;;;;;;9.61;56.50;101506.03;5113704;28;20938;-70
2023/04/27 07:36:07;;;;;;;8.10;1.17;;;;;;;9.44;58.04;101513.59;5113550;28;20574;-69
2023/04/27 07:38:34;;;;;;;5.77;1.20;;;;;;;9.49;57.40;101505.50;5113602;28;20934;-68
2023/04/27 07:41:04;;;;;;;5.60;1.67;;;;;;;9.51;57.87;101514.13;5113909;28;20432;-68
2023/04/27 07:43:31;;;;;;;6.07;1.63;;;;;;;9.50;57.69;101515.22;5113765;28;20482;-68
2023/04/27 07:45:58;;;;;;;6.57;1.53;;;;;;;9.44;58.32;101514.41;5113410;28;20467;-68
2023/04/27 07:48:25;;;;;;;5.20;1.20;;;;;;;9.49;58.68;101519.81;5113796;28;20794;-68
2023/04/27 07:50:52;;;;;;;5.93;1.70;;;;;;;9.62;58.04;101517.66;5113798;28;20446;-68
2023/04/27 07:53:18;;;;;;;7.07;1.63;;;;;;;9.57;57.58;101513.06;5113757;28;20449;-67
2023/04/27 07:55:45;;;;;;;7.80;1.53;;;;;;;9.47;58.98;101521.16;5114032;28;20833;-70
2023/04/27 07:58:13;;;;;;;5.03;1.33;;;;;;;9.51;57.50;101517.63;5113747;28;20447;-68
2023/04/27 08:00:40;;;;;;;6.70;1.47;;;;;;;9.59;57.22;101519.81;5113737;28;20440;-65
2023/04/27 08:03:07;;;;;;;4.63;0.90;;;;;;;9.70;57.87;101515.22;5113297;28;20836;-67
2023/04/27 08:05:34;;;;;;;6.60;1.47;;;;;;;9.83;57.80;101519.28;5113574;28;20463;-67
2023/04/27 08:08:00;;;;;;;5.60;1.20;;;;;;;9.84;57.46;101524.41;5113300;28;20440;-68
2023/04/27 08:10:27;;;;;;;5.50;1.50;;;;;;;9.90;58.10;101527.09;5113511;28;20895;-68
2023/04/27 08:12:54;;;;;;;6.83;2.03;;;;;;;10.01;57.42;101526.00;5113524;28;20542;-67
2023/04/27 08:15:22;;;;;;;5.90;1.80;;;;;;;9.92;57.14;101530.34;5113522;28;20463;-67
2023/04/27 08:17:49;;;;;;;6.70;1.77;;;;;;;9.94;56.09;101518.16;5117394;28;20435;-67
2023/04/27 08:20:16;;;;;;;5.27;1.40;;;;;;;10.02;54.93;101528.44;5118103;28;20452;-67
2023/04/27 08:22:42;;;;;;;6.37;1.90;;;;;;;9.94;53.98;101528.97;5117768;28;20871;-67
2023/04/27 08:25:09;;;;;;;5.67;1.97;;;;;;;10.03;53.91;101524.63;5117882;28;20467;-67
2023/04/27 08:27:38;;;;;;;6.10;1.57;;;;;;;10.15;53.94;101528.94;5117522;28;20455;-67
2023/04/27 08:30:06;;;;;;;13.27;2.37;;;;;;;10.10;52.66;101529.78;5117727;28;20797;-67
2023/04/27 08:32:34;;;;;;;6.57;1.40;;;;;;;9.98;53.52;101531.94;5117650;28;20447;-68
2023/04/27 08:35:01;;;;;;;7.10;1.70;;;;;;;9.85;54.07;101536.03;5117495;28;20475;-67
2023/04/27 08:37:27;;;;;;;7.17;1.77;;;;;;;9.80;55.30;101528.72;5117851;28;20853;-67
2023/04/27 08:39:54;;;;;;;4.60;1.00;;;;;;;9.85;55.90;101527.91;5117473;28;20443;-67
2023/04/27 08:42:21;;;;;;;7.83;1.30;;;;;;;9.95;55.64;101525.19;5117115;28;20547;-67
2023/04/27 08:44:47;;;;;;;5.10;1.40;;;;;;;9.75;55.31;101533.34;5117438;28;20550;-67
2023/04/27 08:47:14;;;;;;;6.10;0.93;;;;;;;9.72;55.17;101536.59;5117103;28;20443;-68
2023/04/27 08:49:42;;;;;;;4.63;1.03;;;;;;;9.95;53.79;101532.50;5117351;28;20439;-67
2023/04/27 08:52:13;;;;;;;5.13;1.37;;;;;;;9.92;53.19;101533.06;5116875;28;20826;-70
2023/04/27 08:54:39;;;;;;;8.33;1.57;;;;;;;9.96;53.67;101539.53;5116858;28;20974;-66
2023/04/27 08:57:10;;;;;;;5.97;1.50;;;;;;;9.96;53.01;101536.81;5117071;28;20461;-67
2023/04/27 08:59:37;;;;;;;5.43;1.37;;;;;;;10.00;52.76;101535.19;5117011;28;20443;-68
2023/04/27 09:02:04;;;;;;;6.30;1.43;;;;;;;9.83;54.30;101530.09;5116549;28;20478;-67
2023/04/27 09:04:37;;;;;;;5.67;1.33;;;;;;;9.81;53.63;101530.34;5116716;28;20482;-67
2023/04/27 09:07:12;;;;;;;6.57;1.13;;;;;;;9.49;54.29;101536.03;5117066;27;20435;-67
2023/04/27 09:09:38;;;;;;;5.87;1.13;;;;;;;9.77;52.02;101540.09;5116675;28;20981;-67
2023/04/27 09:12:14;;;;;;;12.70;1.43;;;;;;;9.90;51.02;101538.72;5116672;28;20489;-68
2023/04/27 09:14:41;;;;;;;7.67;1.70;;;;;;;9.89;51.42;101539.81;5116627;28;20466;-68
2023/04/27 09:17:08;;;;;;;9.60;1.33;;;;;;;9.96;52.94;101529.53;5116616;28;20527;-67
2023/04/27 09:19:34;;;;;;;5.67;1.40;;;;;;;10.04;52.99;101536.25;5116305;28;20468;-67
2023/04/27 09:22:06;;;;;;;6.27;0.93;;;;;;;10.04;52.91;101538.97;5116289;28;20432;-68
2023/04/27 09:24:34;;;;;;;5.30;1.23;;;;;;;10.02;52.58;101538.44;5116428;28;20498;-67
2023/04/27 09:27:01;;;;;;;5.30;1.10;;;;;;;9.99;53.55;101544.41;5116439;28;20439;-68
2023/04/27 09:29:36;;;;;;;7.63;1.20;;;;;;;9.96;54.17;101534.94;5116511;28;20896;-67
2023/04/27 09:32:14;;;;;;;6.23;1.27;;;;;;;9.88;55.29;101532.78;5116451;28;20474;-68
2023/04/27 09:34:41;;;;;;;5.57;1.63;;;;;;;9.96;54.00;101529.53;5115872;28;20593;-67
2023/04/27 09:37:08;;;;;;;5.73;1.37;;;;;;;9.92;54.50;101524.94;5116338;27;20440;-68
2023/04/27 09:39:37;;;;;;;4.80;1.20;;;;;;;10.07;53.07;101519.47;5116239;28;20431;-68
2023/04/27 09:42:04;;;;;;;5.37;1.53;;;;;;;10.30;53.91;101499.94;5115912;28;20954;-67
2023/04/27 09:44:31;;;;;;;4.83;1.10;;;;;;;10.59;51.97;101507.41;5115684;28;20486;-67
2023/04/27 09:46:59;;;;;;;8.80;1.10;;;;;;;10.70;50.45;101505.47;5115754;28;21001;-68
2023/04/27 09:49:27;;;;;;;6.33;1.30;;;;;;;10.74;51.44;101506.53;5115737;28;20486;-67
2023/04/27 09:51:55;;;;;;;5.03;1.23;;;;;;;10.95;49.37;101509.94;5116030;28;20462;-67
2023/04/27 09:54:25;;;;;;;6.43;1.73;;;;;;;10.76;50.06;101512.50;5115902;28;20439;-68
2023/04/27 09:57:04;;;;;;;6.07;1.00;;;;;;;10.41;50.34;101508.84;5116004;28;20439;-68
2023/04/27 09:59:55;;;;;;;5.17;1.30;;;;;;;10.35;51.76;101505.34;5115938;28;20483;-68
2023/04/27 10:02:24;;;;;;;6.73;1.40;;;;;;;10.45;51.35;101498.28;5115720;28;20973;-68
2023/04/27 10:05:13;;;;;;;5.83;1.30;;;;;;;10.54;50.86;101502.03;5115753;28;20542;-67
2023/04/27 10:07:40;;;;;;;5.20;1.00;;;;;;;10.66;51.10;101494.38;5115819;28;20428;-67
2023/04/27 10:10:16;;;;;;;6.07;1.67;;;;;;;10.61;50.23;101502.53;5115727;28;20440;-68
2023/04/27 10:12:55;;;;;;;5.03;1.20;;;;;;;10.65;50.47;101503.59;5115678;28;20420;-67
2023/04/27 10:15:26;;;;;;;5.13;1.30;;;;;;;10.68;51.19;101497.63;5115526;28;20480;-67
2023/04/27 10:17:54;;;;;;;6.80;1.50;;;;;;;10.75;51.97;101492.69;5115489;27;20446;-68
2023/04/27 10:20:30;;;;;;;4.80;1.20;;;;;;;10.77;49.53;101489.72;5115465;28;20451;-67
2023/04/27 10:22:56;;;;;;;5.27;1.37;;;;;;;10.76;46.64;101493.53;5115058;28;20989;-67
2023/04/27 10:25:25;;;;;;;4.60;1.03;;;;;;;10.89;49.54;101481.22;5115253;28;20542;-67
2023/04/27 10:27:55;;;;;;;7.03;1.10;;;;;;;11.15;48.03;101485.38;5115301;28;20431;-67
2023/04/27 10:30:23;;;;;;;4.60;0.80;;;;;;;11.48;44.96;101488.41;5115326;28;20438;-67
2023/04/27 10:32:52;;;;;;;4.80;1.10;;;;;;;11.59;46.27;101485.28;5115194;28;20504;-66
2023/04/27 10:35:20;;;;;;;4.33;0.73;;;;;;;11.79;44.35;101486.22;5114759;28;20511;-67
2023/04/27 10:37:47;;;;;;;5.70;1.33;;;;;;;11.75;44.90;101488.69;5114619;28;20450;-67
2023/04/27 10:40:16;;;;;;;5.33;1.07;;;;;;;11.59;43.62;101487.19;5114458;28;20446;-67
2023/04/27 10:42:43;;;;;;;8.73;1.13;;;;;;;11.50;43.59;101494.34;5114904;28;20795;-67
2023/04/27 10:45:12;;;;;;;4.60;1.00;;;;;;;11.41;43.52;101496.03;5114581;28;20538;-66
2023/04/27 10:47:41;;;;;;;4.70;1.00;;;;;;;11.22;44.05;101502.16;5114544;28;20443;-67
2023/04/27 10:50:10;;;;;;;4.80;1.07;;;;;;;11.08;44.84;101506.59;5114935;28;20472;-67
2023/04/27 10:52:39;;;;;;;6.93;1.03;;;;;;;10.95;45.42;101504.53;5114769;28;20447;-67
2023/04/27 10:55:16;;;;;;;6.80;1.00;;;;;;;10.98;46.49;101509.34;5114360;28;20550;-67
2023/04/27 10:57:48;;;;;;;5.10;1.00;;;;;;;10.98;46.32;101502.06;5114709;28;20435;-67
2023/04/27 11:00:23;;;;;;;5.93;1.20;;;;;;;10.99;46.58;101502.88;5114649;28;20837;-67
2023/04/27 11:02:49;;;;;;;5.43;1.07;;;;;;;11.10;46.59;101504.41;5114499;28;20424;-67
2023/04/27 11:05:18;;;;;;;5.07;1.13;;;;;;;11.25;46.95;101498.88;5114594;28;20463;-67
2023/04/27 11:07:45;;;;;;;7.03;1.37;;;;;;;11.36;45.94;101508.56;5114479;28;20450;-67
2023/04/27 11:10:16;;;;;;;6.00;0.90;;;;;;;11.46;46.57;101502.22;5114490;28;20522;-66
2023/04/27 11:12:43;;;;;;;6.10;1.50;;;;;;;11.42;45.46;101503.91;5114229;28;20823;-67
2023/04/27 11:15:10;;;;;;;5.17;1.30;;;;;;;11.34;45.12;101501.81;5114416;28;20983;-65
2023/04/27 11:17:38;;;;;;;5.27;1.40;;;;;;;11.41;46.07;101501.47;5114519;28;20443;-67
2023/04/27 11:20:07;;;;;;;4.90;1.10;;;;;;;11.53;44.46;101510.84;5114424;28;20466;-67
2023/04/27 11:22:34;;;;;;;4.70;1.13;;;;;;;11.97;45.06;101509.94;5114105;28;20443;-67
2023/04/27 11:25:02;;;;;;;5.50;0.90;;;;;;;12.95;42.93;101510.34;5114032;28;20479;-67
2023/04/27 11:27:37;;;;;;;5.67;1.20;;;;;;;13.77;41.98;101509.91;5114339;28;20443;-67
2023/04/27 11:30:06;;;;;;;9.37;1.30;;;;;;;14.31;40.87;101511.03;5114162;28;20925;-67
2023/04/27 11:32:33;;;;;;;5.57;1.30;;;;;;;14.77;38.94;101517.47;5113863;28;20818;-68